SFO weather

San Francisco International Airport
San Francisco, California, United States

Public forecast

Using degrees Fahrenheit for public forecast. Weather courtesy of forecast.io.

METAR (pilot weather report)

Retrieved 2019/02/17 12:56 UTC (53 minutes ago):

KSFO 171256Z 26007KT 9SM -RA FEW016 SCT030 OVC048 07/04 A3003 RMK AO2 RAE19B45 SLP168 P0000 T00670044

TAF (pilot weather forecast)

Retrieved 2019/02/17 12:22 UTC (1 hour ago):

TAF KSFO 171120Z 1712/1818 26007KT P6SM -SHRA SCT030 BKN040 BKN100 FM171600 27011KT P6SM VCSH FEW030 BKN050 FM171800 28014G22KT P6SM VCSH FEW030 BKN060 FM172100 28016G28KT P6SM VCSH FEW030 SCT050 FM180300 28012KT P6SM FEW030 SCT050 SCT150 FM180600 29008KT P6SM FEW030